createdAt,value
2018-01-21T00:00:26.207Z,44.70
2018-01-21T00:01:30.469Z,42.25
2018-01-21T00:02:34.715Z,41.42
2018-01-21T00:03:38.943Z,42.10
2018-01-21T00:04:43.152Z,43.22
2018-01-21T00:05:47.383Z,43.25
2018-01-21T00:06:51.597Z,44.15
2018-01-21T00:07:55.961Z,46.37
2018-01-21T00:09:00.237Z,44.38
2018-01-21T00:10:04.466Z,41.60
2018-01-21T00:11:09.425Z,42.45
2018-01-21T00:12:13.621Z,40.10
2018-01-21T00:13:17.826Z,41.93
2018-01-21T00:14:22.128Z,45.45
2018-01-21T00:15:26.344Z,42.60
2018-01-21T00:16:30.569Z,41.73
2018-01-21T00:17:34.863Z,46.25
2018-01-21T00:18:39.052Z,43.93
2018-01-21T00:19:43.290Z,47.77
2018-01-21T00:20:47.488Z,47.47
2018-01-21T00:21:52.422Z,43.17
2018-01-21T00:22:57.364Z,44.60
2018-01-21T00:24:01.572Z,42.28
2018-01-21T00:25:05.825Z,42.47
2018-01-21T00:26:10.039Z,44.40
2018-01-21T00:27:14.222Z,44.58
2018-01-21T00:28:18.400Z,43.35
2018-01-21T00:29:23.538Z,44.42
2018-01-21T00:30:27.795Z,43.10
2018-01-21T00:31:32.019Z,43.67
2018-01-21T00:32:36.254Z,44.75
2018-01-21T00:33:40.474Z,45.73
2018-01-21T00:34:45.464Z,44.75
2018-01-21T00:35:49.798Z,45.60
2018-01-21T00:36:54.138Z,45.42
2018-01-21T00:37:58.369Z,45.10
2018-01-21T00:39:02.608Z,44.17
2018-01-21T00:40:06.976Z,43.90
2018-01-21T00:41:11.297Z,45.03
2018-01-21T00:42:15.505Z,43.13
2018-01-21T00:43:19.695Z,42.33
2018-01-21T00:44:23.901Z,42.97
2018-01-21T00:45:28.884Z,41.37
2018-01-21T00:46:33.091Z,43.38
2018-01-21T00:47:37.334Z,42.92
2018-01-21T00:48:41.578Z,41.10
2018-01-21T00:49:46.618Z,41.77
2018-01-21T00:50:50.834Z,39.33
2018-01-21T00:51:55.060Z,37.65
2018-01-21T00:52:59.349Z,40.45
2018-01-21T00:54:03.540Z,40.30
2018-01-21T00:55:08.478Z,38.05
2018-01-21T00:56:12.671Z,37.67
2018-01-21T00:57:16.884Z,38.65
2018-01-21T00:58:21.884Z,40.15
2018-01-21T00:59:26.075Z,35.17
2018-01-21T01:00:30.267Z,36.30
2018-01-21T01:01:34.485Z,37.42
2018-01-21T01:02:38.686Z,43.28
2018-01-21T01:03:42.926Z,38.55
2018-01-21T01:04:47.153Z,37.20
2018-01-21T01:05:51.349Z,37.50
2018-01-21T01:06:55.633Z,37.10
2018-01-21T01:07:59.850Z,36.00
2018-01-21T01:09:04.153Z,33.53
2018-01-21T01:10:08.363Z,34.72
2018-01-21T01:11:12.544Z,33.42
2018-01-21T01:12:17.486Z,32.50
2018-01-21T01:13:22.477Z,33.83
2018-01-21T01:14:27.073Z,33.63
2018-01-21T01:15:31.361Z,32.83
2018-01-21T01:16:35.547Z,34.53
2018-01-21T01:17:40.499Z,33.63
2018-01-21T01:18:44.685Z,36.30
2018-01-21T01:19:49.718Z,33.65
2018-01-21T01:20:54.721Z,31.25
2018-01-21T01:21:58.907Z,28.55
2018-01-21T01:23:03.107Z,29.52
2018-01-21T01:24:07.298Z,28.58
2018-01-21T01:25:11.608Z,27.10
2018-01-21T01:26:15.930Z,26.52
2018-01-21T01:27:20.197Z,26.98
2018-01-21T01:28:24.422Z,30.00
2018-01-21T01:29:29.388Z,28.00
2018-01-21T01:30:33.630Z,27.92
2018-01-21T01:31:37.895Z,26.23
2018-01-21T01:32:42.182Z,23.70
2018-01-21T01:33:47.132Z,23.87
2018-01-21T01:34:52.109Z,24.23
2018-01-21T01:35:56.382Z,24.02
2018-01-21T01:37:00.593Z,23.62
2018-01-21T01:38:04.826Z,21.55
2018-01-21T01:39:09.058Z,22.75
2018-01-21T01:40:13.235Z,20.85
2018-01-21T01:41:17.448Z,20.90
2018-01-21T01:42:21.684Z,20.37
2018-01-21T01:43:26.066Z,20.40
2018-01-21T01:44:30.289Z,20.30
2018-01-21T01:45:34.480Z,21.48
2018-01-21T01:46:38.698Z,21.98
2018-01-21T01:47:42.977Z,21.12
2018-01-21T01:48:55.892Z,18.45
2018-01-21T01:50:00.873Z,21.10
2018-01-21T01:51:05.047Z,19.92
2018-01-21T01:52:10.026Z,19.83
2018-01-21T01:53:14.305Z,19.48
2018-01-21T01:54:18.527Z,18.33
2018-01-21T01:55:22.745Z,18.10
2018-01-21T01:56:26.923Z,18.20
2018-01-21T01:57:31.143Z,17.67
2018-01-21T01:58:35.380Z,18.20
2018-01-21T01:59:39.564Z,15.75
2018-01-21T02:00:43.879Z,17.77
2018-01-21T02:01:48.441Z,16.12
2018-01-21T02:02:52.663Z,15.32
2018-01-21T02:03:56.937Z,16.17
2018-01-21T02:05:01.201Z,15.38
2018-01-21T02:06:06.190Z,14.40
2018-01-21T02:07:10.374Z,15.18
2018-01-21T02:08:14.576Z,14.60
2018-01-21T02:09:19.167Z,15.25
2018-01-21T02:10:24.199Z,13.57
2018-01-21T02:11:29.151Z,13.15
2018-01-21T02:12:33.364Z,12.63
2018-01-21T02:13:37.568Z,11.80
2018-01-21T02:14:41.795Z,11.55
2018-01-21T02:15:46.013Z,13.30
2018-01-21T02:16:50.190Z,12.55
2018-01-21T02:17:55.160Z,10.52
2018-01-21T02:18:59.373Z,11.90
2018-01-21T02:20:03.672Z,11.67
2018-01-21T02:21:07.922Z,11.50
2018-01-21T02:22:12.243Z,11.55
2018-01-21T02:23:17.964Z,11.10
2018-01-21T02:24:22.183Z,12.27
2018-01-21T02:25:26.453Z,11.00
2018-01-21T02:26:30.623Z,11.93
2018-01-21T02:27:34.827Z,12.35
2018-01-21T02:28:39.045Z,12.20
2018-01-21T02:29:43.277Z,13.70
2018-01-21T02:30:48.309Z,13.90
2018-01-21T02:31:53.300Z,13.90
2018-01-21T02:32:57.512Z,13.60
2018-01-21T02:34:01.729Z,14.85
2018-01-21T02:35:05.906Z,14.60
2018-01-21T02:36:10.137Z,15.70
2018-01-21T02:37:14.350Z,16.50
2018-01-21T02:38:18.531Z,14.77
2018-01-21T02:39:22.752Z,16.83
2018-01-21T02:40:26.959Z,16.95
2018-01-21T02:41:31.216Z,17.80
2018-01-21T02:42:35.433Z,17.20
2018-01-21T02:43:40.413Z,17.70
2018-01-21T02:44:44.599Z,19.52
2018-01-21T02:45:48.855Z,16.90
2018-01-21T02:46:53.164Z,19.12
2018-01-21T02:47:57.347Z,19.62
2018-01-21T02:49:01.553Z,19.45
2018-01-21T02:50:05.736Z,20.27
2018-01-21T02:51:10.689Z,20.35
2018-01-21T02:52:14.908Z,20.20
2018-01-21T02:53:19.222Z,19.20
2018-01-21T02:54:23.409Z,22.02
2018-01-21T02:55:28.385Z,23.80
2018-01-21T02:56:32.610Z,24.20
2018-01-21T02:57:37.628Z,22.35
2018-01-21T02:58:42.567Z,23.92
2018-01-21T02:59:46.773Z,24.63
2018-01-21T03:00:51.017Z,26.48
2018-01-21T03:01:56.043Z,25.88
2018-01-21T03:03:01.069Z,25.25
2018-01-21T03:04:06.123Z,25.23
2018-01-21T03:05:10.337Z,24.85
2018-01-21T03:06:14.515Z,24.65
2018-01-21T03:07:18.767Z,26.15
2018-01-21T03:08:23.384Z,24.35
2018-01-21T03:09:27.554Z,25.67
2018-01-21T03:10:31.812Z,27.00
2018-01-21T03:11:36.113Z,27.37
2018-01-21T03:12:40.302Z,27.27
2018-01-21T03:13:45.330Z,22.15
2018-01-21T03:14:50.284Z,26.42
2018-01-21T03:15:54.516Z,25.45
2018-01-21T03:16:58.737Z,24.15
2018-01-21T03:18:02.948Z,26.37
2018-01-21T03:19:07.190Z,25.08
2018-01-21T03:20:11.418Z,25.23
2018-01-21T03:21:16.418Z,26.40
2018-01-21T03:22:20.632Z,25.45
2018-01-21T03:23:24.915Z,25.33
2018-01-21T03:24:29.500Z,24.85
2018-01-21T03:25:34.434Z,24.27
2018-01-21T03:26:38.652Z,23.75
2018-01-21T03:27:42.870Z,23.62
2018-01-21T03:28:47.089Z,24.48
2018-01-21T03:29:51.314Z,26.75
2018-01-21T03:30:55.546Z,24.83
2018-01-21T03:31:59.736Z,27.13
2018-01-21T03:33:03.954Z,23.73
2018-01-21T03:34:08.141Z,25.10
2018-01-21T03:35:12.380Z,24.73
2018-01-21T03:36:16.595Z,22.27
2018-01-21T03:37:20.813Z,23.80
2018-01-21T03:38:25.007Z,22.58
2018-01-21T03:39:29.221Z,22.40
2018-01-21T03:40:33.441Z,21.08
2018-01-21T03:41:37.696Z,22.73
2018-01-21T03:42:42.245Z,22.90
2018-01-21T03:43:46.464Z,22.20
2018-01-21T03:44:50.630Z,22.10
2018-01-21T03:45:54.861Z,24.35
2018-01-21T03:46:59.083Z,21.20
2018-01-21T03:48:03.320Z,21.30
2018-01-21T03:49:07.504Z,23.52
2018-01-21T03:50:11.732Z,21.70
2018-01-21T03:51:15.948Z,20.83
2018-01-21T03:52:20.135Z,21.27
2018-01-21T03:53:24.723Z,22.45
2018-01-21T03:54:29.724Z,22.48
2018-01-21T03:55:33.895Z,20.73
2018-01-21T03:56:38.077Z,22.40
2018-01-21T03:57:42.291Z,22.77
2018-01-21T03:58:46.832Z,23.23
2018-01-21T03:59:51.087Z,19.85
2018-01-21T04:00:55.343Z,20.33
2018-01-21T04:01:59.515Z,21.33
2018-01-21T04:03:03.729Z,21.17
2018-01-21T04:04:08.754Z,21.92
2018-01-21T04:05:13.735Z,20.30
2018-01-21T04:06:18.005Z,21.08
2018-01-21T04:07:22.987Z,21.33
2018-01-21T04:08:27.220Z,19.70
2018-01-21T04:09:31.892Z,21.25
2018-01-21T04:10:36.085Z,22.13
2018-01-21T04:11:41.107Z,22.80
2018-01-21T04:12:46.055Z,20.52
2018-01-21T04:13:50.222Z,21.70
2018-01-21T04:14:54.489Z,20.80
2018-01-21T04:15:58.672Z,22.65
2018-01-21T04:17:03.724Z,20.60
2018-01-21T04:18:07.916Z,24.60
2018-01-21T04:19:12.888Z,23.12
2018-01-21T04:20:17.172Z,23.33
2018-01-21T04:21:21.366Z,22.20
2018-01-21T04:22:26.341Z,24.08
2018-01-21T04:23:30.640Z,23.35
2018-01-21T04:24:34.857Z,25.08
2018-01-21T04:25:39.131Z,21.77
2018-01-21T04:26:43.351Z,21.50
2018-01-21T04:27:47.518Z,20.45
2018-01-21T04:28:51.790Z,24.48
2018-01-21T04:29:56.040Z,22.60
2018-01-21T04:31:00.214Z,22.08
2018-01-21T04:32:04.487Z,20.23
2018-01-21T04:33:09.474Z,19.10
2018-01-21T04:34:13.791Z,18.50
2018-01-21T04:35:18.739Z,18.05
2018-01-21T04:36:22.921Z,18.42
2018-01-21T04:37:27.206Z,18.55
2018-01-21T04:38:31.438Z,18.05
2018-01-21T04:39:35.672Z,16.95
2018-01-21T04:40:39.851Z,19.15
2018-01-21T04:41:44.061Z,19.27
2018-01-21T04:42:48.281Z,17.40
2018-01-21T04:43:52.463Z,18.95
2018-01-21T04:44:56.686Z,18.37
2018-01-21T04:46:00.972Z,18.10
2018-01-21T04:47:05.961Z,19.65
2018-01-21T04:48:10.142Z,19.45
2018-01-21T04:49:14.319Z,19.45
2018-01-21T04:50:19.324Z,18.45
2018-01-21T04:51:23.504Z,18.77
2018-01-21T04:52:27.725Z,19.45
2018-01-21T04:53:31.997Z,19.48
2018-01-21T04:54:36.219Z,18.40
2018-01-21T04:55:40.432Z,19.20
2018-01-21T04:56:44.674Z,19.65
2018-01-21T04:57:49.040Z,18.50
2018-01-21T04:58:53.225Z,19.90
2018-01-21T04:59:57.395Z,19.85
2018-01-21T05:01:01.623Z,18.95
2018-01-21T05:02:05.846Z,20.67
2018-01-21T05:03:10.036Z,19.60
2018-01-21T05:04:14.203Z,19.85
2018-01-21T05:05:18.378Z,18.20
2018-01-21T05:06:23.008Z,18.05
2018-01-21T05:07:27.994Z,19.15
2018-01-21T05:08:32.225Z,16.15
2018-01-21T05:09:36.416Z,17.55
2018-01-21T05:10:40.621Z,16.73
2018-01-21T05:11:44.892Z,17.30
2018-01-21T05:12:49.831Z,16.48
2018-01-21T05:13:54.008Z,18.10
2018-01-21T05:14:58.196Z,15.98
2018-01-21T05:16:02.404Z,14.85
2018-01-21T05:17:06.679Z,15.68
2018-01-21T05:18:10.851Z,17.58
2018-01-21T05:19:15.031Z,16.95
2018-01-21T05:20:19.249Z,16.17
2018-01-21T05:21:23.468Z,13.73
2018-01-21T05:22:27.721Z,13.20
2018-01-21T05:23:32.660Z,13.02
2018-01-21T05:24:36.912Z,13.73
2018-01-21T05:25:41.155Z,13.93
2018-01-21T05:26:46.146Z,13.90
2018-01-21T05:27:50.394Z,12.90
2018-01-21T05:28:54.647Z,14.13
2018-01-21T05:29:58.827Z,12.85
2018-01-21T05:31:04.214Z,13.27
2018-01-21T05:32:08.420Z,14.00
2018-01-21T05:33:12.629Z,12.37
2018-01-21T05:34:16.806Z,12.90
2018-01-21T05:35:21.033Z,12.93
2018-01-21T05:36:25.236Z,11.75
2018-01-21T05:37:29.539Z,11.15
2018-01-21T05:38:34.519Z,11.52
2018-01-21T05:39:38.699Z,11.18
2018-01-21T05:40:42.981Z,10.80
2018-01-21T05:41:47.932Z,10.35
2018-01-21T05:42:52.244Z,9.70
2018-01-21T05:43:56.424Z,11.07
2018-01-21T05:45:00.613Z,10.50
2018-01-21T05:46:04.793Z,10.07
2018-01-21T05:47:09.009Z,9.35
2018-01-21T05:48:13.568Z,9.25
2018-01-21T05:49:17.824Z,8.32
2018-01-21T05:50:22.128Z,8.95
2018-01-21T05:51:26.328Z,7.82
2018-01-21T05:52:31.259Z,9.00
2018-01-21T05:53:35.766Z,8.70
2018-01-21T05:54:40.757Z,8.80
2018-01-21T05:55:44.942Z,9.25
2018-01-21T05:56:49.158Z,9.30
2018-01-21T05:57:53.326Z,7.47
2018-01-21T05:58:58.684Z,8.15
2018-01-21T06:00:02.978Z,8.20
2018-01-21T06:01:07.911Z,7.75
2018-01-21T06:02:12.189Z,6.70
2018-01-21T06:03:16.359Z,7.78
2018-01-21T06:04:20.582Z,6.85
2018-01-21T06:05:24.806Z,6.80
2018-01-21T06:06:29.051Z,5.97
2018-01-21T06:07:34.064Z,6.87
2018-01-21T06:08:38.283Z,7.05
2018-01-21T06:09:42.506Z,7.15
2018-01-21T06:10:47.513Z,6.87
2018-01-21T06:11:51.741Z,7.78
2018-01-21T06:12:55.945Z,5.28
2018-01-21T06:14:00.952Z,6.68
2018-01-21T06:15:05.213Z,7.50
2018-01-21T06:16:09.391Z,6.43
2018-01-21T06:17:13.593Z,6.43
2018-01-21T06:18:17.787Z,7.40
2018-01-21T06:19:22.063Z,6.32
2018-01-21T06:20:26.265Z,6.05
2018-01-21T06:21:30.591Z,6.00
2018-01-21T06:22:34.810Z,7.20
2018-01-21T06:23:39.114Z,6.10
2018-01-21T06:24:43.375Z,6.25
2018-01-21T06:25:47.588Z,6.75
2018-01-21T06:26:51.793Z,5.70
2018-01-21T06:27:56.009Z,6.30
2018-01-21T06:29:00.222Z,6.45
2018-01-21T06:30:04.419Z,7.00
2018-01-21T06:31:08.586Z,6.60
2018-01-21T06:32:12.804Z,6.18
2018-01-21T06:33:17.014Z,7.45
2018-01-21T06:34:21.253Z,5.68
2018-01-21T06:35:25.434Z,5.70
2018-01-21T06:36:29.650Z,5.45
2018-01-21T06:37:34.226Z,6.82
2018-01-21T06:38:39.205Z,5.47
2018-01-21T06:39:43.418Z,5.68
2018-01-21T06:40:47.591Z,5.90
2018-01-21T06:41:52.540Z,5.68
2018-01-21T06:42:56.805Z,5.00
2018-01-21T06:44:01.038Z,4.82
2018-01-21T06:45:06.016Z,5.12
2018-01-21T06:46:10.237Z,5.22
2018-01-21T06:47:14.424Z,4.20
2018-01-21T06:48:18.643Z,5.10
2018-01-21T06:49:22.854Z,5.40
2018-01-21T06:50:27.147Z,4.53
2018-01-21T06:51:31.381Z,4.32
2018-01-21T06:52:35.653Z,4.53
2018-01-21T06:53:40.647Z,5.30
2018-01-21T06:54:44.828Z,4.80
2018-01-21T06:55:49.037Z,4.72
2018-01-21T06:56:53.250Z,5.07
2018-01-21T06:57:57.645Z,4.60
2018-01-21T06:59:01.863Z,4.85
2018-01-21T07:00:06.094Z,4.82
2018-01-21T07:01:10.310Z,4.32
2018-01-21T07:02:14.533Z,4.10
2018-01-21T07:03:18.711Z,4.07
2018-01-21T07:04:22.947Z,4.78
2018-01-21T07:05:27.166Z,4.20
2018-01-21T07:06:31.386Z,4.10
2018-01-21T07:07:35.597Z,4.00
2018-01-21T07:08:39.866Z,4.35
2018-01-21T07:09:44.061Z,4.10
2018-01-21T07:10:48.235Z,3.78
2018-01-21T07:11:52.573Z,4.72
2018-01-21T07:12:57.548Z,4.35
2018-01-21T07:14:01.772Z,4.30
2018-01-21T07:15:05.985Z,3.90
2018-01-21T07:16:10.156Z,3.12
2018-01-21T07:17:14.460Z,3.10
2018-01-21T07:18:18.880Z,4.00
2018-01-21T07:19:23.145Z,3.65
2018-01-21T07:20:27.332Z,3.08
2018-01-21T07:21:31.527Z,4.30
2018-01-21T07:22:35.729Z,3.20
2018-01-21T07:23:39.941Z,3.53
2018-01-21T07:24:44.202Z,3.78
2018-01-21T07:25:48.389Z,3.70
2018-01-21T07:26:52.593Z,3.45
2018-01-21T07:27:56.819Z,3.62
2018-01-21T07:29:01.005Z,2.85
2018-01-21T07:30:05.281Z,4.37
2018-01-21T07:31:09.462Z,3.30
2018-01-21T07:32:13.820Z,3.55
2018-01-21T07:33:18.038Z,3.72
2018-01-21T07:34:22.297Z,4.18
2018-01-21T07:35:26.492Z,4.72
2018-01-21T07:36:30.677Z,4.18
2018-01-21T07:37:34.885Z,3.80
2018-01-21T07:38:39.088Z,3.00
2018-01-21T07:39:43.297Z,3.15
2018-01-21T07:40:47.532Z,3.35
2018-01-21T07:41:51.703Z,3.58
2018-01-21T07:42:56.686Z,2.87
2018-01-21T07:44:00.864Z,2.80
2018-01-21T07:45:05.168Z,3.17
2018-01-21T07:46:09.581Z,2.67
2018-01-21T07:47:13.835Z,4.20
2018-01-21T07:48:19.532Z,4.50
2018-01-21T07:49:23.705Z,3.75
2018-01-21T07:50:27.967Z,5.55
2018-01-21T07:51:32.601Z,3.37
2018-01-21T07:52:36.780Z,3.95
2018-01-21T07:53:41.082Z,3.05
2018-01-21T07:54:46.037Z,2.42
2018-01-21T07:55:50.241Z,3.33
2018-01-21T07:56:54.483Z,2.67
2018-01-21T07:57:58.663Z,2.67
2018-01-21T07:59:02.876Z,2.67
2018-01-21T08:00:07.056Z,3.40
2018-01-21T08:01:11.987Z,3.28
2018-01-21T08:02:16.980Z,3.20
2018-01-21T08:03:21.157Z,2.53
2018-01-21T08:04:25.369Z,2.47
2018-01-21T08:05:29.585Z,2.60
2018-01-21T08:06:33.760Z,2.85
2018-01-21T08:07:38.969Z,2.62
2018-01-21T08:08:43.288Z,2.90
2018-01-21T08:09:47.560Z,2.80
2018-01-21T08:10:51.757Z,2.80
2018-01-21T08:11:55.938Z,2.62
2018-01-21T08:13:00.926Z,3.00
2018-01-21T08:14:05.203Z,2.50
2018-01-21T08:15:09.437Z,3.58
2018-01-21T08:16:13.606Z,2.92
2018-01-21T08:17:18.589Z,3.05
2018-01-21T08:18:22.768Z,3.05
2018-01-21T08:19:27.065Z,2.62
2018-01-21T08:20:32.092Z,2.30
2018-01-21T08:21:36.305Z,4.32
2018-01-21T08:22:40.487Z,2.62
2018-01-21T08:23:44.689Z,3.03
2018-01-21T08:24:48.924Z,3.17
2018-01-21T08:25:53.963Z,2.40
2018-01-21T08:26:58.139Z,2.72
2018-01-21T08:28:02.336Z,3.58
2018-01-21T08:29:06.516Z,4.07
2018-01-21T08:30:11.129Z,4.75
2018-01-21T08:31:15.334Z,2.60
2018-01-21T08:32:19.537Z,2.55
2018-01-21T08:33:23.719Z,3.05
2018-01-21T08:34:33.570Z,2.50
2018-01-21T08:35:44.201Z,2.47
2018-01-21T08:36:53.981Z,2.20
2018-01-21T08:38:04.524Z,2.63
2018-01-21T08:39:14.343Z,2.05
2018-01-21T08:40:23.988Z,2.15
2018-01-21T08:41:31.846Z,2.62
2018-01-21T08:42:37.435Z,2.30
2018-01-21T08:43:41.643Z,3.20
2018-01-21T08:44:45.853Z,2.35
2018-01-21T08:45:50.069Z,2.53
2018-01-21T08:46:54.333Z,2.35
2018-01-21T08:47:58.515Z,2.17
2018-01-21T08:49:03.573Z,1.98
2018-01-21T08:50:07.743Z,1.85
2018-01-21T08:51:11.941Z,2.83
2018-01-21T08:52:16.142Z,2.00
2018-01-21T08:53:20.536Z,2.03
2018-01-21T08:54:24.716Z,1.95
2018-01-21T08:55:29.659Z,1.80
2018-01-21T08:56:33.893Z,2.40
2018-01-21T08:57:38.069Z,2.40
2018-01-21T08:58:42.386Z,2.30
2018-01-21T08:59:46.577Z,1.52
2018-01-21T09:00:51.512Z,2.37
2018-01-21T09:01:56.456Z,1.95
2018-01-21T09:03:00.670Z,2.30
2018-01-21T09:04:05.437Z,2.55
2018-01-21T09:05:09.740Z,2.30
2018-01-21T09:06:13.985Z,1.92
2018-01-21T09:07:18.961Z,2.80
2018-01-21T09:08:23.177Z,2.08
2018-01-21T09:09:27.448Z,2.42
2018-01-21T09:10:31.705Z,1.83
2018-01-21T09:11:35.871Z,2.20
2018-01-21T09:12:40.917Z,1.55
2018-01-21T09:13:45.129Z,1.92
2018-01-21T09:14:49.528Z,1.80
2018-01-21T09:15:53.858Z,2.03
2018-01-21T09:16:58.077Z,2.53
2018-01-21T09:18:02.273Z,2.35
2018-01-21T09:19:06.495Z,1.62
2018-01-21T09:20:10.761Z,2.00
2018-01-21T09:21:14.935Z,1.98
2018-01-21T09:22:19.113Z,1.90
2018-01-21T09:23:23.328Z,2.30
2018-01-21T09:24:27.542Z,1.83
2018-01-21T09:25:31.763Z,2.05
2018-01-21T09:26:35.945Z,2.00
2018-01-21T09:27:40.914Z,2.20
2018-01-21T09:28:45.145Z,1.92
2018-01-21T09:29:50.840Z,1.67
2018-01-21T09:30:55.405Z,1.80
2018-01-21T09:31:59.579Z,2.35
2018-01-21T09:33:03.891Z,2.10
2018-01-21T09:34:08.089Z,1.70
2018-01-21T09:35:13.061Z,2.33
2018-01-21T09:36:17.312Z,1.90
2018-01-21T09:37:22.285Z,2.05
2018-01-21T09:38:26.477Z,2.47
2018-01-21T09:39:30.681Z,2.25
2018-01-21T09:40:34.889Z,2.17
2018-01-21T09:41:39.129Z,2.47
2018-01-21T09:42:43.346Z,2.47
2018-01-21T09:43:47.570Z,2.70
2018-01-21T09:44:52.153Z,2.45
2018-01-21T09:45:56.336Z,3.20
2018-01-21T09:47:01.317Z,2.20
2018-01-21T09:48:05.520Z,2.40
2018-01-21T09:49:09.700Z,2.20
2018-01-21T09:50:13.927Z,2.17
2018-01-21T09:51:18.125Z,2.00
2018-01-21T09:52:22.340Z,2.00
2018-01-21T09:53:26.591Z,2.10
2018-01-21T09:54:30.834Z,2.37
2018-01-21T09:55:35.843Z,2.42
2018-01-21T09:56:40.015Z,1.67
2018-01-21T09:57:44.212Z,1.80
2018-01-21T09:58:48.416Z,1.40
2018-01-21T09:59:52.633Z,1.52
2018-01-21T10:00:57.258Z,1.75
2018-01-21T10:02:01.465Z,1.77
2018-01-21T10:03:05.663Z,1.58
2018-01-21T10:04:09.886Z,2.05
2018-01-21T10:05:14.166Z,1.93
2018-01-21T10:06:19.644Z,1.90
2018-01-21T10:07:23.884Z,1.73
2018-01-21T10:08:28.064Z,2.10
2018-01-21T10:09:32.277Z,2.00
2018-01-21T10:10:36.545Z,1.75
2018-01-21T10:11:40.801Z,2.30
2018-01-21T10:12:44.971Z,1.80
2018-01-21T10:13:49.271Z,1.40
2018-01-21T10:14:53.528Z,2.10
2018-01-21T10:15:57.728Z,2.00
2018-01-21T10:17:02.723Z,2.50
2018-01-21T10:18:06.925Z,2.00
2018-01-21T10:19:11.149Z,1.90
2018-01-21T10:20:15.407Z,2.05
2018-01-21T10:21:19.630Z,1.90
2018-01-21T10:22:23.846Z,2.00
2018-01-21T10:23:28.052Z,2.00
2018-01-21T10:24:32.274Z,2.33
2018-01-21T10:25:36.462Z,1.90
2018-01-21T10:26:40.678Z,2.20
2018-01-21T10:27:44.977Z,2.10
2018-01-21T10:28:49.156Z,2.35
2018-01-21T10:29:53.379Z,2.23
2018-01-21T10:30:58.407Z,2.05
2018-01-21T10:32:03.414Z,1.70
2018-01-21T10:33:08.027Z,2.42
2018-01-21T10:34:12.211Z,1.77
2018-01-21T10:35:16.429Z,1.93
2018-01-21T10:36:20.638Z,1.50
2018-01-21T10:37:24.917Z,1.87
2018-01-21T10:38:29.902Z,1.80
2018-01-21T10:39:34.123Z,1.50
2018-01-21T10:40:38.330Z,1.60
2018-01-21T10:41:42.600Z,2.20
2018-01-21T10:42:46.773Z,3.03
2018-01-21T10:43:51.014Z,1.90
2018-01-21T10:44:55.190Z,4.12
2018-01-21T10:46:00.185Z,1.45
2018-01-21T10:47:04.367Z,1.67
2018-01-21T10:48:08.548Z,2.70
2018-01-21T10:49:12.877Z,2.20
2018-01-21T10:50:17.102Z,2.00
2018-01-21T10:51:21.283Z,2.80
2018-01-21T10:52:26.253Z,1.60
2018-01-21T10:53:30.453Z,1.33
2018-01-21T10:54:34.736Z,1.60
2018-01-21T10:55:39.741Z,1.50
2018-01-21T10:56:43.977Z,1.37
2018-01-21T10:57:48.194Z,1.77
2018-01-21T10:58:52.385Z,1.45
2018-01-21T10:59:56.609Z,1.13
2018-01-21T11:01:02.467Z,1.43
2018-01-21T11:02:06.675Z,2.10
2018-01-21T11:03:10.889Z,0.85
2018-01-21T11:04:15.206Z,1.42
2018-01-21T11:05:19.416Z,1.83
2018-01-21T11:06:23.635Z,1.70
2018-01-21T11:07:27.841Z,1.63
2018-01-21T11:08:32.049Z,1.10
2018-01-21T11:09:36.339Z,1.60
2018-01-21T11:10:41.388Z,1.30
2018-01-21T11:11:45.598Z,1.37
2018-01-21T11:12:49.826Z,1.60
2018-01-21T11:13:54.107Z,1.60
2018-01-21T11:14:59.097Z,1.27
2018-01-21T11:16:03.267Z,1.33
2018-01-21T11:17:07.432Z,1.70
2018-01-21T11:18:11.646Z,1.87
2018-01-21T11:19:17.366Z,1.10
2018-01-21T11:20:21.597Z,1.23
2018-01-21T11:21:25.772Z,1.20
2018-01-21T11:22:29.930Z,1.20
2018-01-21T11:23:34.115Z,1.50
2018-01-21T11:24:38.344Z,1.30
2018-01-21T11:25:42.558Z,1.40
2018-01-21T11:26:46.756Z,1.80
2018-01-21T11:27:50.920Z,1.20
2018-01-21T11:28:55.178Z,1.45
2018-01-21T11:29:59.352Z,2.40
2018-01-21T11:31:03.615Z,1.63
2018-01-21T11:32:07.826Z,1.20
2018-01-21T11:33:12.811Z,1.97
2018-01-21T11:34:17.060Z,2.30
2018-01-21T11:35:21.236Z,1.93
2018-01-21T11:36:25.920Z,2.90
2018-01-21T11:37:30.148Z,2.77
2018-01-21T11:38:34.333Z,2.63
2018-01-21T11:39:38.617Z,2.10
2018-01-21T11:40:42.833Z,1.80
2018-01-21T11:41:47.137Z,1.80
2018-01-21T11:42:51.349Z,1.77
2018-01-21T11:43:56.331Z,1.57
2018-01-21T11:45:00.636Z,1.37
2018-01-21T11:46:04.889Z,1.70
2018-01-21T11:47:10.800Z,1.30
2018-01-21T11:48:13.335Z,1.70
2018-01-21T11:49:18.310Z,1.70
2018-01-21T11:50:22.567Z,1.30
2018-01-21T11:51:27.561Z,1.43
2018-01-21T11:52:32.085Z,1.40
2018-01-21T11:53:36.265Z,1.17
2018-01-21T11:54:40.457Z,2.13
2018-01-21T11:55:45.398Z,1.70
2018-01-21T11:56:49.598Z,1.80
2018-01-21T11:57:53.817Z,1.20
2018-01-21T11:58:58.889Z,2.03
2018-01-21T12:00:03.107Z,1.50
2018-01-21T12:01:08.055Z,1.60
2018-01-21T12:02:12.258Z,2.13
2018-01-21T12:03:16.488Z,1.33
2018-01-21T12:04:20.690Z,1.10
2018-01-21T12:05:26.467Z,1.13
2018-01-21T12:06:30.634Z,1.20
2018-01-21T12:07:34.858Z,1.00
2018-01-21T12:08:39.155Z,1.50
2018-01-21T12:09:43.370Z,1.00
2018-01-21T12:10:47.535Z,1.47
2018-01-21T12:11:51.742Z,1.03
2018-01-21T12:12:55.965Z,1.70
2018-01-21T12:14:00.204Z,1.33
2018-01-21T12:15:05.887Z,1.30
2018-01-21T12:16:10.140Z,1.62
2018-01-21T12:17:14.382Z,1.37
2018-01-21T12:18:18.540Z,1.47
2018-01-21T12:19:22.803Z,0.90
2018-01-21T12:20:27.073Z,1.33
2018-01-21T12:21:31.260Z,1.97
2018-01-21T12:22:35.474Z,1.17
2018-01-21T12:23:39.683Z,0.90
2018-01-21T12:24:43.871Z,1.37
2018-01-21T12:25:48.079Z,1.20
2018-01-21T12:26:52.296Z,1.27
2018-01-21T12:27:56.463Z,0.87
2018-01-21T12:29:00.665Z,1.47
2018-01-21T12:30:04.955Z,1.30
2018-01-21T12:31:09.146Z,1.50
2018-01-21T12:32:14.156Z,1.43
2018-01-21T12:33:18.499Z,1.77
2018-01-21T12:34:22.722Z,1.40
2018-01-21T12:35:26.925Z,1.40
2018-01-21T12:36:31.100Z,1.00
2018-01-21T12:37:35.455Z,1.27
2018-01-21T12:38:39.852Z,1.10
2018-01-21T12:39:44.870Z,1.40
2018-01-21T12:40:49.033Z,0.90
2018-01-21T12:41:53.233Z,1.40
2018-01-21T12:42:57.533Z,1.53
2018-01-21T12:44:02.045Z,0.93
2018-01-21T12:45:06.282Z,0.90
2018-01-21T12:46:10.472Z,1.15
2018-01-21T12:47:14.670Z,1.17
2018-01-21T12:48:19.613Z,0.80
2018-01-21T12:49:23.883Z,0.80
2018-01-21T12:50:28.089Z,1.03
2018-01-21T12:51:32.344Z,1.30
2018-01-21T12:52:36.655Z,1.50
2018-01-21T12:53:40.953Z,1.10
2018-01-21T12:54:46.297Z,1.57
2018-01-21T12:55:51.438Z,1.10
2018-01-21T12:56:55.670Z,1.70
2018-01-21T12:57:59.859Z,1.10
2018-01-21T12:59:04.040Z,1.37
2018-01-21T13:00:09.395Z,1.30
2018-01-21T13:01:14.332Z,1.30
2018-01-21T13:02:18.545Z,1.33
2018-01-21T13:03:22.732Z,4.07
2018-01-21T13:04:27.710Z,1.33
2018-01-21T13:05:31.936Z,1.70
2018-01-21T13:06:36.095Z,1.67
2018-01-21T13:07:41.074Z,1.03
2018-01-21T13:08:45.289Z,0.80
2018-01-21T13:09:49.497Z,1.00
2018-01-21T13:10:54.020Z,1.40
2018-01-21T13:11:58.220Z,0.80
2018-01-21T13:13:02.421Z,1.03
2018-01-21T13:14:06.635Z,1.37
2018-01-21T13:15:10.838Z,1.10
2018-01-21T13:16:15.127Z,1.00
2018-01-21T13:17:19.336Z,1.30
2018-01-21T13:18:23.503Z,1.10
2018-01-21T13:19:27.692Z,1.80
2018-01-21T13:20:31.893Z,1.77
2018-01-21T13:21:36.100Z,1.57
2018-01-21T13:22:40.267Z,2.70
2018-01-21T13:23:45.208Z,2.53
2018-01-21T13:24:50.179Z,1.97
2018-01-21T13:25:54.347Z,1.60
2018-01-21T13:26:59.284Z,1.23
2018-01-21T13:28:03.579Z,1.10
2018-01-21T13:29:08.557Z,1.30
2018-01-21T13:30:13.134Z,0.90
2018-01-21T13:31:18.166Z,1.60
2018-01-21T13:32:22.485Z,1.37
2018-01-21T13:33:26.681Z,1.63
2018-01-21T13:34:31.658Z,1.90
2018-01-21T13:35:35.856Z,1.27
2018-01-21T13:36:40.020Z,1.20
2018-01-21T13:37:44.994Z,1.47
2018-01-21T13:38:49.189Z,1.30
2018-01-21T13:39:53.393Z,0.70
2018-01-21T13:40:57.701Z,0.90
2018-01-21T13:42:02.670Z,0.70
2018-01-21T13:43:06.857Z,2.10
2018-01-21T13:44:12.114Z,1.00
2018-01-21T13:45:16.329Z,1.40
2018-01-21T13:46:20.548Z,1.00
2018-01-21T13:47:24.724Z,1.70
2018-01-21T13:48:28.898Z,1.17
2018-01-21T13:49:33.835Z,1.53
2018-01-21T13:50:38.795Z,1.17
2018-01-21T13:51:43.086Z,1.80
2018-01-21T13:52:48.115Z,1.17
2018-01-21T13:53:52.289Z,0.93
2018-01-21T13:54:56.493Z,1.63
2018-01-21T13:56:00.695Z,1.40
2018-01-21T13:57:04.962Z,1.10
2018-01-21T13:58:09.278Z,1.20
2018-01-21T13:59:13.485Z,1.20
2018-01-21T14:00:17.798Z,1.17
2018-01-21T14:01:22.009Z,0.83
2018-01-21T14:02:26.283Z,1.15
2018-01-21T14:03:30.526Z,1.70
2018-01-21T14:04:34.750Z,1.40
2018-01-21T14:05:38.973Z,1.30